createdAt,value
2022-12-08T00:00:16.032Z,59.33
2022-12-08T00:03:03.814Z,62.58
2022-12-08T00:06:09.857Z,65.40
2022-12-08T00:09:15.488Z,57.13
2022-12-08T00:12:05.325Z,53.28
2022-12-08T00:14:54.566Z,61.88
2022-12-08T00:17:41.724Z,55.33
2022-12-08T00:20:28.841Z,60.65
2022-12-08T00:23:15.927Z,65.40
2022-12-08T00:26:06.924Z,60.35
2022-12-08T00:29:03.161Z,59.58
2022-12-08T00:31:50.548Z,68.40
2022-12-08T00:34:37.654Z,70.00
2022-12-08T00:40:48.245Z,64.07
2022-12-08T00:43:36.419Z,57.42
2022-12-08T00:46:24.540Z,59.90
2022-12-08T00:49:12.121Z,59.00
2022-12-08T00:51:59.221Z,64.45
2022-12-08T00:54:46.554Z,63.95
2022-12-08T00:57:33.751Z,60.10
2022-12-08T01:00:21.552Z,62.38
2022-12-08T01:03:12.884Z,62.58
2022-12-08T01:06:04.155Z,54.75
2022-12-08T01:15:03.939Z,52.58
2022-12-08T01:21:23.659Z,55.25
2022-12-08T01:24:07.540Z,54.50
2022-12-08T01:26:54.662Z,51.67
2022-12-08T01:32:54.538Z,49.30
2022-12-08T01:35:41.605Z,52.88
2022-12-08T01:38:28.728Z,51.90
2022-12-08T01:41:25.281Z,50.40
2022-12-08T01:44:13.918Z,50.15
2022-12-08T01:53:35.121Z,43.33
2022-12-08T01:56:56.993Z,45.92
2022-12-08T02:00:07.361Z,44.97
2022-12-08T02:06:11.987Z,44.88
2022-12-08T02:09:01.423Z,44.63
2022-12-08T02:12:14.141Z,45.22
2022-12-08T02:15:05.012Z,47.65
2022-12-08T02:21:14.634Z,45.45
2022-12-08T02:24:23.172Z,46.53
2022-12-08T02:27:32.525Z,48.10
2022-12-08T02:30:43.902Z,47.15
2022-12-08T02:37:30.872Z,48.28
2022-12-08T02:40:24.229Z,49.25
2022-12-08T02:43:29.844Z,50.13
2022-12-08T02:46:35.719Z,48.20
2022-12-08T02:49:34.737Z,50.22
2022-12-08T02:52:21.728Z,50.80
2022-12-08T02:55:15.490Z,51.03
2022-12-08T03:01:41.177Z,49.95
2022-12-08T03:04:50.977Z,49.58
2022-12-08T03:07:53.517Z,48.30
2022-12-08T03:10:44.523Z,49.40
2022-12-08T03:13:41.589Z,50.95
2022-12-08T03:16:31.326Z,55.13
2022-12-08T03:19:22.417Z,49.58
2022-12-08T03:22:11.828Z,48.60
2022-12-08T03:24:59.072Z,45.95
2022-12-08T03:27:46.299Z,50.90
2022-12-08T03:30:38.738Z,48.30
2022-12-08T03:33:31.518Z,47.75
2022-12-08T03:36:19.481Z,44.13
2022-12-08T03:39:06.677Z,48.15
2022-12-08T03:42:07.930Z,52.73
2022-12-08T03:50:58.219Z,41.40
2022-12-08T03:53:45.946Z,43.50
2022-12-08T03:56:36.106Z,43.08
2022-12-08T04:06:05.685Z,43.70
2022-12-08T04:12:03.092Z,42.80
2022-12-08T04:18:13.674Z,41.50
2022-12-08T04:21:01.490Z,41.58
2022-12-08T04:23:49.050Z,37.83
2022-12-08T04:26:36.122Z,40.78
2022-12-08T04:29:23.236Z,38.78
2022-12-08T04:32:10.411Z,45.65
2022-12-08T04:34:57.529Z,40.90
2022-12-08T04:37:44.639Z,44.22
2022-12-08T04:40:31.922Z,46.15
2022-12-08T04:43:19.204Z,41.28
2022-12-08T04:46:08.290Z,42.25
2022-12-08T04:48:55.465Z,43.40
2022-12-08T04:51:42.696Z,41.63
2022-12-08T04:54:29.868Z,38.67
2022-12-08T04:57:17.204Z,42.45
2022-12-08T05:00:05.739Z,41.05
2022-12-08T05:02:53.262Z,40.95
2022-12-08T05:05:41.929Z,44.25
2022-12-08T05:08:29.552Z,36.20
2022-12-08T05:11:16.710Z,37.60
2022-12-08T05:14:03.755Z,35.35
2022-12-08T05:16:50.966Z,40.55
2022-12-08T05:19:38.143Z,39.17
2022-12-08T05:22:25.213Z,43.20
2022-12-08T05:28:46.257Z,37.83
2022-12-08T05:31:40.554Z,44.50
2022-12-08T05:34:29.064Z,39.22
2022-12-08T05:37:18.307Z,40.13
2022-12-08T05:40:09.993Z,40.30
2022-12-08T05:45:46.788Z,39.85
2022-12-08T05:48:34.969Z,37.25
2022-12-08T05:51:24.242Z,34.22
2022-12-08T05:54:11.532Z,43.08
2022-12-08T05:57:00.443Z,42.00
2022-12-08T05:59:47.667Z,36.25
2022-12-08T06:02:37.612Z,40.13
2022-12-08T06:05:24.849Z,34.58
2022-12-08T06:08:12.894Z,39.28
2022-12-08T06:11:00.675Z,36.58
2022-12-08T06:13:48.739Z,36.63
2022-12-08T06:16:36.459Z,35.00
2022-12-08T06:19:26.531Z,31.38
2022-12-08T06:22:13.803Z,35.40
2022-12-08T06:25:01.915Z,39.17
2022-12-08T06:27:56.239Z,35.92
2022-12-08T06:30:45.086Z,33.95
2022-12-08T06:33:33.756Z,30.25
2022-12-08T06:36:23.381Z,32.05
2022-12-08T06:39:11.310Z,32.65
2022-12-08T06:42:17.090Z,32.42
2022-12-08T06:45:04.531Z,33.53
2022-12-08T06:47:52.468Z,35.80
2022-12-08T06:50:39.608Z,29.77
2022-12-08T06:53:26.885Z,32.47
2022-12-08T06:56:16.530Z,34.22
2022-12-08T06:59:04.220Z,32.67
2022-12-08T07:01:51.838Z,32.08
2022-12-08T07:04:39.164Z,32.83
2022-12-08T07:07:26.345Z,40.30
2022-12-08T07:10:14.155Z,36.03
2022-12-08T07:13:04.193Z,42.38
2022-12-08T07:15:52.676Z,32.85
2022-12-08T07:18:41.670Z,36.42
2022-12-08T07:21:29.126Z,48.10
2022-12-08T07:24:16.269Z,27.58
2022-12-08T07:27:03.562Z,25.38
2022-12-08T07:29:50.810Z,23.63
2022-12-08T07:32:39.797Z,29.25
2022-12-08T07:35:27.154Z,26.05
2022-12-08T07:38:23.497Z,24.40
2022-12-08T07:41:25.651Z,32.50
2022-12-08T07:44:13.135Z,29.88
2022-12-08T07:47:00.241Z,28.27
2022-12-08T07:49:47.376Z,24.75
2022-12-08T07:52:35.359Z,21.35
2022-12-08T07:55:22.562Z,25.65
2022-12-08T07:58:14.700Z,23.85
2022-12-08T08:01:02.449Z,22.33
2022-12-08T08:03:50.553Z,24.98
2022-12-08T08:06:37.956Z,22.05
2022-12-08T08:09:25.157Z,22.77
2022-12-08T08:15:22.121Z,19.08
2022-12-08T08:18:09.616Z,22.88
2022-12-08T08:20:58.099Z,20.08
2022-12-08T08:23:45.999Z,19.70
2022-12-08T08:26:36.938Z,19.93
2022-12-08T08:29:24.398Z,23.48
2022-12-08T08:32:11.934Z,19.90
2022-12-08T08:34:59.113Z,19.63
2022-12-08T08:37:49.120Z,17.63
2022-12-08T08:40:36.733Z,20.65
2022-12-08T08:43:34.468Z,14.55
2022-12-08T08:46:25.270Z,16.58
2022-12-08T08:49:19.381Z,17.73
2022-12-08T08:52:07.623Z,15.45
2022-12-08T08:55:03.813Z,16.33
2022-12-08T08:58:20.870Z,16.25
2022-12-08T09:01:08.616Z,13.45
2022-12-08T09:03:56.673Z,14.82
2022-12-08T09:06:45.218Z,16.13
2022-12-08T09:09:32.402Z,14.82
2022-12-08T09:12:22.735Z,13.48
2022-12-08T09:15:12.457Z,12.32
2022-12-08T09:17:59.651Z,12.32
2022-12-08T09:20:46.940Z,12.13
2022-12-08T09:23:35.945Z,11.80
2022-12-08T09:26:23.947Z,12.00
2022-12-08T09:29:11.626Z,12.38
2022-12-08T09:31:59.055Z,14.57
2022-12-08T09:34:51.789Z,13.50
2022-12-08T09:37:39.528Z,13.80
2022-12-08T09:40:27.183Z,11.70
2022-12-08T09:43:45.726Z,10.52
2022-12-08T09:46:34.578Z,10.05
2022-12-08T09:49:32.524Z,102.90
2022-12-08T09:52:27.950Z,8.63
2022-12-08T09:55:34.185Z,7.15
2022-12-08T09:58:38.574Z,11.32
2022-12-08T10:01:32.251Z,39.22
2022-12-08T10:04:26.659Z,4.20
2022-12-08T10:07:18.347Z,5.35
2022-12-08T10:10:38.857Z,4.50
2022-12-08T10:13:38.774Z,5.50
2022-12-08T10:16:41.052Z,7.30
2022-12-08T10:19:29.001Z,6.70
2022-12-08T10:22:45.083Z,6.88
2022-12-08T10:25:43.197Z,6.57
2022-12-08T10:28:33.452Z,4.43
2022-12-08T10:31:24.223Z,3.67
2022-12-08T10:34:20.683Z,4.32
2022-12-08T10:37:10.144Z,6.85
2022-12-08T10:40:03.485Z,3.47
2022-12-08T10:42:53.362Z,5.00
2022-12-08T10:45:44.698Z,3.58
2022-12-08T10:48:31.985Z,4.10
2022-12-08T10:51:25.071Z,3.88
2022-12-08T10:54:34.481Z,4.78
2022-12-08T10:57:23.610Z,5.75
2022-12-08T11:00:16.324Z,5.10
2022-12-08T11:03:04.827Z,3.50
2022-12-08T11:05:56.481Z,2.70
2022-12-08T11:08:56.496Z,2.97
2022-12-08T11:11:56.705Z,2.60
2022-12-08T11:14:43.957Z,2.95
2022-12-08T11:17:41.689Z,3.33
2022-12-08T11:20:40.840Z,3.67
2022-12-08T11:23:29.542Z,3.33
2022-12-08T11:26:33.711Z,3.45
2022-12-08T11:29:21.262Z,3.20
2022-12-08T11:32:14.124Z,4.28
2022-12-08T11:35:06.433Z,3.05
2022-12-08T11:38:13.425Z,3.75
2022-12-08T11:41:16.742Z,3.27
2022-12-08T11:44:32.449Z,3.72
2022-12-08T11:47:34.286Z,4.28
2022-12-08T11:50:30.900Z,4.10
2022-12-08T11:53:29.851Z,3.65
2022-12-08T11:56:22.609Z,3.67
2022-12-08T11:59:19.989Z,4.13
2022-12-08T12:02:18.283Z,3.67
2022-12-08T12:05:11.446Z,3.55
2022-12-08T12:12:39.614Z,4.28
2022-12-08T12:15:52.145Z,3.85
2022-12-08T12:18:46.384Z,4.53
2022-12-08T12:21:39.641Z,4.18
2022-12-08T12:24:36.019Z,4.22
2022-12-08T12:27:39.125Z,3.90
2022-12-08T12:30:28.383Z,4.43
2022-12-08T12:33:17.818Z,4.80
2022-12-08T12:36:07.618Z,5.15
2022-12-08T12:39:01.882Z,4.00
2022-12-08T12:41:55.859Z,4.35
2022-12-08T12:44:44.440Z,4.18
2022-12-08T12:47:54.315Z,5.03
2022-12-08T12:50:49.493Z,4.47
2022-12-08T12:53:37.302Z,5.13
2022-12-08T12:56:48.406Z,2.30
2022-12-08T12:59:40.828Z,2.85
2022-12-08T13:02:44.218Z,4.28
2022-12-08T13:05:45.847Z,4.07
2022-12-08T13:08:33.388Z,4.45
2022-12-08T13:11:22.495Z,5.28
2022-12-08T13:14:27.234Z,4.68
2022-12-08T13:17:24.935Z,5.38
2022-12-08T13:20:24.557Z,5.05
2022-12-08T13:23:36.962Z,5.53
2022-12-08T13:26:26.876Z,4.78
2022-12-08T13:29:19.693Z,5.82
2022-12-08T13:32:09.851Z,5.60
2022-12-08T13:35:00.163Z,4.45
2022-12-08T13:37:54.886Z,5.47
2022-12-08T13:40:43.873Z,5.82
2022-12-08T13:44:39.196Z,4.63
2022-12-08T13:51:07.023Z,4.15
2022-12-08T13:57:05.558Z,4.47
2022-12-08T13:59:52.720Z,4.45
2022-12-08T14:02:47.844Z,5.47
2022-12-08T14:06:11.280Z,5.10
2022-12-08T14:09:02.384Z,4.75
2022-12-08T14:12:04.313Z,5.10
2022-12-08T14:15:04.740Z,4.13
2022-12-08T14:17:56.743Z,4.97
2022-12-08T14:21:18.972Z,3.72
2022-12-08T14:23:51.225Z,4.15
2022-12-08T14:26:38.751Z,4.53
2022-12-08T14:29:32.984Z,4.53
2022-12-08T14:32:32.613Z,4.72
2022-12-08T14:35:25.230Z,5.35
2022-12-08T14:38:15.038Z,4.78
2022-12-08T14:41:07.843Z,3.92
2022-12-08T14:44:00.435Z,4.82
2022-12-08T14:47:28.399Z,5.75
2022-12-08T14:50:42.104Z,5.45
2022-12-08T14:53:43.311Z,5.80
2022-12-08T14:56:51.980Z,5.13
2022-12-08T14:59:41.040Z,5.97
2022-12-08T15:02:32.028Z,5.28
2022-12-08T15:05:21.068Z,4.50
2022-12-08T15:08:12.797Z,5.10
2022-12-08T15:11:27.283Z,6.40
2022-12-08T15:14:28.817Z,5.55
2022-12-08T15:17:48.450Z,5.68
2022-12-08T15:20:38.562Z,5.47
2022-12-08T15:23:42.610Z,5.35
2022-12-08T15:26:39.440Z,4.50
2022-12-08T15:29:29.133Z,5.47
2022-12-08T15:32:22.631Z,8.02
2022-12-08T15:35:14.514Z,7.22
2022-12-08T15:38:01.598Z,7.53
2022-12-08T15:40:49.425Z,6.25
2022-12-08T15:43:36.497Z,5.20
2022-12-08T15:46:23.665Z,6.93
2022-12-08T15:49:17.263Z,5.75
2022-12-08T15:52:11.444Z,5.93
2022-12-08T15:54:58.782Z,4.80
2022-12-08T16:00:56.333Z,9.27
2022-12-08T16:04:27.593Z,8.00
2022-12-08T16:10:00.507Z,8.23
2022-12-08T16:13:55.750Z,7.78
2022-12-08T16:16:19.588Z,42.25
2022-12-08T16:19:08.940Z,11.35
2022-12-08T16:25:17.668Z,10.98
2022-12-08T16:28:29.268Z,68.78
2022-12-08T16:31:16.669Z,5.05
2022-12-08T16:34:05.920Z,5.72
2022-12-08T16:36:53.083Z,4.57
2022-12-08T16:39:45.631Z,4.63
2022-12-08T16:42:40.492Z,10.40
2022-12-08T16:45:29.739Z,7.53
2022-12-08T16:48:16.845Z,7.65
2022-12-08T16:51:04.535Z,7.43
2022-12-08T16:53:52.024Z,8.85
2022-12-08T16:56:39.150Z,8.07
2022-12-08T16:59:26.329Z,8.93
2022-12-08T17:02:16.435Z,11.00
2022-12-08T17:05:04.708Z,22.07
2022-12-08T17:07:53.631Z,15.88
2022-12-08T17:10:42.022Z,13.48
2022-12-08T17:13:31.663Z,11.52
2022-12-08T17:16:19.517Z,10.50
2022-12-08T17:19:07.213Z,7.22
2022-12-08T17:21:54.307Z,7.28
2022-12-08T17:24:41.462Z,8.80
2022-12-08T17:27:28.592Z,7.82
2022-12-08T17:30:17.601Z,8.93
2022-12-08T17:33:04.762Z,9.43
2022-12-08T17:35:54.106Z,9.35
2022-12-08T17:38:41.997Z,7.78
2022-12-08T17:41:29.910Z,7.13
2022-12-08T17:44:19.081Z,8.57
2022-12-08T17:47:06.286Z,9.05
2022-12-08T17:49:53.433Z,9.20
2022-12-08T17:52:40.553Z,9.48
2022-12-08T17:55:27.611Z,11.02
2022-12-08T17:58:14.684Z,10.85
2022-12-08T18:01:08.076Z,12.98
2022-12-08T18:03:55.361Z,10.45
2022-12-08T18:06:42.511Z,11.57
2022-12-08T18:09:31.240Z,9.18
2022-12-08T18:12:23.379Z,11.57
2022-12-08T18:15:16.686Z,10.57
2022-12-08T18:18:03.906Z,12.18
2022-12-08T18:20:51.125Z,10.15
2022-12-08T18:23:39.122Z,10.82
2022-12-08T18:26:26.381Z,13.45
2022-12-08T18:29:13.624Z,9.98
2022-12-08T18:32:00.800Z,9.95
2022-12-08T18:34:47.875Z,10.73
2022-12-08T18:37:35.132Z,11.98
2022-12-08T18:40:22.580Z,11.43
2022-12-08T18:43:09.963Z,9.55
2022-12-08T18:46:04.717Z,12.48
2022-12-08T18:48:52.660Z,11.05
2022-12-08T18:51:40.069Z,10.98
2022-12-08T18:54:57.738Z,9.35
2022-12-08T18:57:37.564Z,11.80
2022-12-08T19:00:24.914Z,9.55
2022-12-08T19:03:12.114Z,10.43
2022-12-08T19:06:04.578Z,9.65
2022-12-08T19:08:51.704Z,11.75
2022-12-08T19:11:38.940Z,12.52
2022-12-08T19:14:28.558Z,12.75
2022-12-08T19:17:16.132Z,11.88
2022-12-08T19:20:04.633Z,12.82
2022-12-08T19:22:52.367Z,8.77
2022-12-08T19:25:40.282Z,10.52
2022-12-08T19:28:27.457Z,9.60
2022-12-08T19:31:14.650Z,11.68
2022-12-08T19:34:01.908Z,10.45
2022-12-08T19:36:49.018Z,9.07
2022-12-08T19:39:54.814Z,9.55
2022-12-08T19:43:00.568Z,9.05
2022-12-08T19:45:47.884Z,8.90
2022-12-08T19:48:35.033Z,8.00
2022-12-08T19:51:22.066Z,8.85
2022-12-08T19:54:09.781Z,10.27
2022-12-08T19:56:57.054Z,9.73
2022-12-08T19:59:44.313Z,7.75
2022-12-08T20:02:31.558Z,9.82
2022-12-08T20:05:19.012Z,9.38
2022-12-08T20:08:06.468Z,9.68
2022-12-08T20:10:56.006Z,10.88
2022-12-08T20:13:45.661Z,9.65
2022-12-08T20:16:33.143Z,10.85
2022-12-08T20:19:20.356Z,9.15
2022-12-08T20:22:07.404Z,8.73
2022-12-08T20:24:59.437Z,10.60
2022-12-08T20:27:48.010Z,9.63
2022-12-08T20:30:38.457Z,10.50
2022-12-08T20:33:25.617Z,8.60
2022-12-08T20:36:18.036Z,8.40
2022-12-08T20:39:05.183Z,8.05
2022-12-08T20:41:54.492Z,8.73
2022-12-08T20:44:44.513Z,9.77
2022-12-08T20:47:31.873Z,8.35
2022-12-08T20:50:19.318Z,9.23
2022-12-08T20:53:06.804Z,8.45
2022-12-08T20:55:54.780Z,7.95
2022-12-08T20:58:42.935Z,10.35
2022-12-08T21:01:30.385Z,8.75
2022-12-08T21:04:18.023Z,9.10
2022-12-08T21:07:05.559Z,7.65
2022-12-08T21:09:53.654Z,10.30
2022-12-08T21:12:40.927Z,9.13
2022-12-08T21:15:28.677Z,7.95
2022-12-08T21:18:17.327Z,9.15
2022-12-08T21:21:08.301Z,8.52
2022-12-08T21:23:55.341Z,9.35
2022-12-08T21:26:42.779Z,10.20
2022-12-08T21:29:30.172Z,9.13
2022-12-08T21:32:18.316Z,8.82
2022-12-08T21:35:06.833Z,8.85
2022-12-08T21:37:54.277Z,7.22
2022-12-08T21:40:41.877Z,34.67
2022-12-08T21:43:29.758Z,7.93
2022-12-08T21:46:19.451Z,9.27
2022-12-08T21:49:07.184Z,8.73
2022-12-08T21:51:54.665Z,9.15
2022-12-08T21:58:42.183Z,9.93
2022-12-08T22:01:47.000Z,10.18
2022-12-08T22:04:36.696Z,9.82
2022-12-08T22:07:24.099Z,9.60
2022-12-08T22:10:11.787Z,8.98
2022-12-08T22:12:59.530Z,10.85
2022-12-08T22:15:56.295Z,10.13
2022-12-08T22:18:43.807Z,10.27
2022-12-08T22:21:30.996Z,10.55
2022-12-08T22:24:18.061Z,13.90
2022-12-08T22:27:05.259Z,11.15
2022-12-08T22:29:52.506Z,12.07
2022-12-08T22:32:39.902Z,11.65
2022-12-08T22:35:27.352Z,11.65
2022-12-08T22:38:14.706Z,12.85
2022-12-08T22:41:04.573Z,11.05
2022-12-08T22:43:51.948Z,9.63
2022-12-08T22:46:39.314Z,9.15
2022-12-08T22:49:26.587Z,11.13
2022-12-08T22:52:13.713Z,11.65
2022-12-08T22:55:00.753Z,9.40
2022-12-08T22:57:47.852Z,9.70
2022-12-08T23:00:35.399Z,10.73
2022-12-08T23:03:22.686Z,9.38
2022-12-08T23:06:13.236Z,11.32
2022-12-08T23:09:00.640Z,9.25
2022-12-08T23:11:48.006Z,10.55
2022-12-08T23:14:35.418Z,9.90
2022-12-08T23:17:22.791Z,10.05
2022-12-08T23:20:10.803Z,9.32
2022-12-08T23:22:58.315Z,9.55
2022-12-08T23:25:45.354Z,11.00
2022-12-08T23:28:32.475Z,9.95
2022-12-08T23:31:20.176Z,10.00
2022-12-08T23:34:07.369Z,9.95
2022-12-08T23:36:54.754Z,12.07
2022-12-08T23:39:41.863Z,10.60
2022-12-08T23:42:30.179Z,10.05
2022-12-08T23:45:17.617Z,9.30
2022-12-08T23:48:04.884Z,9.20
2022-12-08T23:50:52.056Z,15.50
2022-12-08T23:53:39.711Z,29.77
2022-12-08T23:56:30.411Z,17.05
2022-12-08T23:59:18.221Z,23.30
